createdAt,value
2019-04-23T00:01:58.775Z,7.73
2019-04-23T00:04:24.106Z,7.23
2019-04-23T00:11:59.873Z,8.23
2019-04-23T00:14:38.012Z,7.70
2019-04-23T00:17:04.731Z,8.10
2019-04-23T00:19:34.223Z,7.87
2019-04-23T00:22:25.134Z,7.70
2019-04-23T00:27:29.159Z,6.30
2019-04-23T00:29:56.466Z,7.40
2019-04-23T00:32:34.958Z,7.63
2019-04-23T00:34:59.597Z,6.23
2019-04-23T00:37:31.316Z,7.27
2019-04-23T00:40:23.409Z,7.85
2019-04-23T00:42:38.410Z,7.70
2019-04-23T00:45:01.739Z,7.10
2019-04-23T00:47:43.094Z,8.07
2019-04-23T00:52:42.171Z,7.67
2019-04-23T00:57:43.976Z,8.20
2019-04-23T01:00:27.357Z,7.70
2019-04-23T01:07:50.008Z,7.45
2019-04-23T01:10:27.386Z,7.40
2019-04-23T01:13:12.471Z,7.15
2019-04-23T01:18:14.166Z,7.97
2019-04-23T01:20:44.458Z,7.33
2019-04-23T01:22:57.094Z,7.10
2019-04-23T01:25:43.652Z,6.20
2019-04-23T01:28:26.607Z,6.53
2019-04-23T01:31:05.246Z,7.00
2019-04-23T01:36:16.115Z,7.47
2019-04-23T01:38:41.717Z,7.97
2019-04-23T01:41:07.698Z,6.80
2019-04-23T01:43:36.486Z,8.13
2019-04-23T01:46:09.547Z,8.60
2019-04-23T01:48:40.768Z,8.03
2019-04-23T01:51:02.310Z,7.50
2019-04-23T01:53:42.018Z,7.60
2019-04-23T01:56:16.842Z,7.83
2019-04-23T01:58:49.967Z,6.90
2019-04-23T02:03:46.986Z,7.40
2019-04-23T02:06:21.984Z,7.90
2019-04-23T02:08:56.906Z,7.27
2019-04-23T02:11:16.466Z,7.43
2019-04-23T02:14:09.572Z,7.57
2019-04-23T02:16:24.634Z,6.90
2019-04-23T02:19:02.846Z,7.23
2019-04-23T02:21:46.840Z,6.30
2019-04-23T02:24:05.036Z,6.60
2019-04-23T02:26:35.642Z,7.07
2019-04-23T02:34:29.238Z,7.03
2019-04-23T02:36:57.532Z,7.40
2019-04-23T02:39:12.217Z,6.67
2019-04-23T02:44:36.624Z,6.93
2019-04-23T02:46:59.858Z,7.20
2019-04-23T02:49:27.195Z,7.30
2019-04-23T03:00:08.053Z,7.03
2019-04-23T03:04:49.950Z,8.13
2019-04-23T03:07:27.354Z,6.10
2019-04-23T03:09:56.584Z,7.17
2019-04-23T03:12:37.726Z,6.83
2019-04-23T03:17:47.385Z,6.60
2019-04-23T03:20:26.718Z,7.28
2019-04-23T03:23:20.205Z,6.87
2019-04-23T03:25:49.765Z,7.00
2019-04-23T03:28:21.117Z,5.97
2019-04-23T03:43:33.666Z,7.40
2019-04-23T03:46:16.362Z,7.55
2019-04-23T03:48:32.294Z,7.30
2019-04-23T03:50:56.251Z,7.37
2019-04-23T03:53:42.844Z,6.77
2019-04-23T03:58:36.734Z,7.07
2019-04-23T04:01:11.854Z,6.67
2019-04-23T04:04:03.818Z,7.25
2019-04-23T04:18:55.267Z,8.00
2019-04-23T04:21:36.850Z,8.23
2019-04-23T04:23:58.304Z,8.25
2019-04-23T04:26:21.084Z,6.80
2019-04-23T04:31:34.650Z,6.65
2019-04-23T04:34:11.221Z,6.57
2019-04-23T04:36:45.818Z,7.70
2019-04-23T04:38:54.342Z,8.85
2019-04-23T04:44:27.192Z,7.63
2019-04-23T04:46:39.659Z,7.45
2019-04-23T04:49:04.297Z,8.20
2019-04-23T04:51:44.248Z,8.10
2019-04-23T05:01:36.899Z,8.23
2019-04-23T05:04:18.257Z,8.63
2019-04-23T05:09:32.644Z,8.07
2019-04-23T05:11:51.897Z,7.33
2019-04-23T05:14:20.895Z,7.33
2019-04-23T05:16:46.022Z,7.97
2019-04-23T05:19:29.736Z,9.03
2019-04-23T05:21:55.678Z,8.23
2019-04-23T05:24:23.224Z,8.25
2019-04-23T05:26:59.731Z,7.33
2019-04-23T05:29:16.271Z,8.63
2019-04-23T05:31:54.989Z,9.33
2019-04-23T05:34:23.955Z,8.40
2019-04-23T05:36:58.340Z,7.83
2019-04-23T05:39:36.027Z,9.40
2019-04-23T05:41:58.481Z,8.20
2019-04-23T05:44:41.722Z,7.73
2019-04-23T05:47:15.025Z,9.25
2019-04-23T05:49:33.066Z,9.30
2019-04-23T05:54:46.210Z,8.43
2019-04-23T05:57:09.970Z,9.47
2019-04-23T05:59:36.061Z,7.90
2019-04-23T06:02:26.713Z,8.83
2019-04-23T06:04:44.650Z,8.78
2019-04-23T06:09:48.131Z,8.98
2019-04-23T06:12:15.659Z,10.43
2019-04-23T06:14:52.541Z,7.77
2019-04-23T06:17:22.945Z,7.50
2019-04-23T06:19:59.642Z,9.15
2019-04-23T06:22:28.811Z,7.55
2019-04-23T06:27:27.667Z,9.13
2019-04-23T06:29:57.794Z,8.70
2019-04-23T06:32:31.426Z,8.67
2019-04-23T06:34:58.185Z,8.60
2019-04-23T06:37:49.826Z,8.25
2019-04-23T06:40:12.127Z,8.67
2019-04-23T06:42:54.718Z,7.77
2019-04-23T06:45:19.382Z,8.87
2019-04-23T06:47:59.449Z,8.10
2019-04-23T06:50:23.970Z,8.93
2019-04-23T06:52:50.681Z,8.33
2019-04-23T06:55:31.902Z,9.37
2019-04-23T06:57:55.505Z,9.58
2019-04-23T07:00:34.258Z,9.30
2019-04-23T07:03:09.128Z,7.97
2019-04-23T07:06:05.375Z,7.77
2019-04-23T07:08:34.502Z,7.73
2019-04-23T07:10:57.890Z,7.83
2019-04-23T07:13:31.258Z,8.90
2019-04-23T07:15:58.806Z,9.30
2019-04-23T07:18:29.259Z,8.03
2019-04-23T07:21:07.965Z,8.37
2019-04-23T07:26:19.435Z,7.77
2019-04-23T07:28:48.570Z,9.07
2019-04-23T07:31:14.129Z,9.15
2019-04-23T07:33:52.795Z,8.00
2019-04-23T07:36:20.710Z,7.63
2019-04-23T07:39:07.226Z,9.17
2019-04-23T07:48:01.539Z,8.63
2019-04-23T07:50:33.530Z,7.20
2019-04-23T07:53:07.107Z,7.23
2019-04-23T07:55:34.480Z,7.63
2019-04-23T07:58:10.617Z,8.25
2019-04-23T08:00:41.370Z,8.13
2019-04-23T08:03:10.866Z,7.97
2019-04-23T08:05:37.702Z,7.37
2019-04-23T08:08:07.492Z,7.40
2019-04-23T08:10:46.720Z,7.90
2019-04-23T08:13:15.583Z,8.20
2019-04-23T08:15:42.919Z,8.70
2019-04-23T08:18:18.625Z,9.13
2019-04-23T08:23:33.035Z,7.50
2019-04-23T08:29:03.581Z,7.40
2019-04-23T08:31:27.885Z,7.43
2019-04-23T08:33:57.766Z,7.70
2019-04-23T08:36:31.264Z,7.17
2019-04-23T08:38:50.834Z,8.37
2019-04-23T08:41:26.957Z,8.93
2019-04-23T08:43:59.514Z,8.80
2019-04-23T08:47:08.691Z,9.00
2019-04-23T08:49:36.185Z,8.10
2019-04-23T08:54:42.986Z,7.30
2019-04-23T08:57:11.239Z,8.03
2019-04-23T08:59:42.375Z,9.67
2019-04-23T09:04:39.971Z,7.65
2019-04-23T09:09:45.430Z,8.27
2019-04-23T09:12:07.049Z,7.80
2019-04-23T09:14:43.291Z,7.43
2019-04-23T09:17:23.222Z,8.17
2019-04-23T09:19:54.451Z,7.00
2019-04-23T09:22:25.091Z,7.00
2019-04-23T09:24:55.695Z,7.27
2019-04-23T09:27:22.654Z,8.58
2019-04-23T09:29:52.209Z,8.00
2019-04-23T09:35:15.935Z,8.30
2019-04-23T09:37:59.666Z,7.40
2019-04-23T09:41:15.519Z,7.13
2019-04-23T09:43:43.352Z,9.07
2019-04-23T09:51:35.820Z,7.92
2019-04-23T09:54:09.418Z,6.50
2019-04-23T09:56:41.583Z,7.80
2019-04-23T09:59:17.672Z,7.50
2019-04-23T10:01:40.950Z,7.43
2019-04-23T10:04:00.106Z,7.53
2019-04-23T10:06:23.274Z,8.17
2019-04-23T10:08:54.015Z,7.87
2019-04-23T10:11:22.239Z,7.22
2019-04-23T10:13:52.745Z,6.75
2019-04-23T10:16:25.743Z,8.07
2019-04-23T10:18:55.152Z,6.85
2019-04-23T10:21:25.571Z,7.00
2019-04-23T10:23:57.086Z,6.87
2019-04-23T10:26:28.291Z,7.33
2019-04-23T10:29:02.325Z,7.67
2019-04-23T10:31:33.486Z,8.15
2019-04-23T10:34:04.484Z,7.15
2019-04-23T10:36:37.918Z,7.57
2019-04-23T10:39:14.948Z,7.37
2019-04-23T10:41:42.266Z,7.20
2019-04-23T10:44:31.178Z,6.97
2019-04-23T10:47:45.298Z,6.87
2019-04-23T10:55:58.781Z,7.57
2019-04-23T10:58:28.571Z,6.90
2019-04-23T11:01:01.715Z,7.20
2019-04-23T11:08:30.901Z,8.07
2019-04-23T11:11:12.166Z,7.13
2019-04-23T11:13:43.599Z,6.55
2019-04-23T11:18:53.121Z,7.03
2019-04-23T11:23:49.846Z,7.42
2019-04-23T11:26:22.890Z,8.67
2019-04-23T11:28:44.209Z,8.03
2019-04-23T11:31:32.028Z,6.90
2019-04-23T11:38:59.592Z,7.45
2019-04-23T11:41:36.547Z,7.00
2019-04-23T11:44:02.299Z,7.20
2019-04-23T11:46:46.184Z,6.70
2019-04-23T11:49:20.621Z,7.70
2019-04-23T11:51:46.030Z,6.33
2019-04-23T11:57:14.998Z,6.97
2019-04-23T11:59:17.547Z,7.00
2019-04-23T12:04:57.567Z,6.90
2019-04-23T12:07:39.435Z,8.48
2019-04-23T12:10:23.536Z,8.40
2019-04-23T12:13:03.837Z,7.83
2019-04-23T12:15:25.261Z,7.05
2019-04-23T12:20:27.194Z,6.93
2019-04-23T12:23:04.646Z,7.45
2019-04-23T12:25:26.832Z,8.17
2019-04-23T12:27:44.095Z,6.50
2019-04-23T12:30:36.507Z,7.20
2019-04-23T12:33:06.974Z,7.50
2019-04-23T12:35:29.131Z,7.45
2019-04-23T12:38:14.268Z,8.40
2019-04-23T12:40:44.297Z,7.00
2019-04-23T12:43:17.344Z,6.80
2019-04-23T12:45:45.258Z,7.73
2019-04-23T12:53:32.217Z,7.30
2019-04-23T12:55:54.494Z,7.97
2019-04-23T13:00:51.460Z,6.70
2019-04-23T13:03:29.848Z,6.90
2019-04-23T13:05:51.267Z,7.33
2019-04-23T13:11:06.858Z,7.77
2019-04-23T13:13:37.654Z,6.70
2019-04-23T13:16:27.926Z,7.63
2019-04-23T13:18:41.545Z,6.93
2019-04-23T13:21:30.082Z,7.22
2019-04-23T13:23:39.188Z,6.77
2019-04-23T13:26:04.492Z,7.70
2019-04-23T13:29:04.858Z,6.90
2019-04-23T13:33:45.491Z,7.75
2019-04-23T13:36:28.930Z,7.90
2019-04-23T13:38:47.336Z,6.77
2019-04-23T13:41:28.849Z,7.77
2019-04-23T13:44:04.553Z,9.93
2019-04-23T13:46:33.119Z,6.70
2019-04-23T13:48:56.170Z,6.90
2019-04-23T13:51:25.771Z,7.53
2019-04-23T13:56:39.300Z,7.23
2019-04-23T13:59:16.124Z,8.83
2019-04-23T14:01:54.787Z,7.80
2019-04-23T14:04:34.801Z,8.35
2019-04-23T14:06:52.142Z,7.50
2019-04-23T14:09:32.823Z,7.92
2019-04-23T14:11:45.207Z,7.97
2019-04-23T14:14:41.911Z,7.67
2019-04-23T14:17:00.188Z,8.70
2019-04-23T14:19:23.211Z,8.17
2019-04-23T14:22:13.691Z,8.88
2019-04-23T14:24:38.739Z,8.50
2019-04-23T14:27:08.457Z,8.07
2019-04-23T14:29:39.405Z,9.00
2019-04-23T14:32:08.857Z,7.72
2019-04-23T14:34:43.861Z,10.18
2019-04-23T14:37:13.300Z,8.47
2019-04-23T14:39:47.736Z,9.00
2019-04-23T14:42:20.671Z,9.27
2019-04-23T14:44:56.144Z,8.70
2019-04-23T14:47:24.237Z,8.50
2019-04-23T14:50:24.036Z,8.30
2019-04-23T14:52:38.961Z,9.10
2019-04-23T14:57:40.276Z,8.93
2019-04-23T15:00:09.812Z,8.80
2019-04-23T15:05:13.491Z,9.60
2019-04-23T15:07:44.931Z,9.75
2019-04-23T15:10:20.841Z,9.87
2019-04-23T15:12:45.620Z,9.57
2019-04-23T15:15:14.370Z,9.40
2019-04-23T15:17:49.734Z,8.23
2019-04-23T15:20:22.989Z,8.50
2019-04-23T15:23:13.227Z,8.90
2019-04-23T15:25:52.950Z,8.33
2019-04-23T15:30:24.253Z,9.70
2019-04-23T15:33:10.184Z,9.17
2019-04-23T15:40:36.367Z,9.07
2019-04-23T15:43:12.205Z,9.30
2019-04-23T15:45:52.699Z,9.40
2019-04-23T15:48:16.216Z,9.50
2019-04-23T15:50:43.572Z,8.68
2019-04-23T15:53:07.563Z,9.23
2019-04-23T15:58:30.815Z,9.40
2019-04-23T16:01:15.428Z,10.20
2019-04-23T16:03:12.900Z,9.70
2019-04-23T16:05:41.836Z,9.30
2019-04-23T16:08:46.664Z,9.80
2019-04-23T16:11:25.997Z,9.00
2019-04-23T16:14:05.881Z,9.47
2019-04-23T16:16:17.711Z,9.30
2019-04-23T16:19:14.025Z,9.53
2019-04-23T16:21:59.010Z,9.00
2019-04-23T16:26:55.822Z,9.00
2019-04-23T16:31:47.772Z,9.40
2019-04-23T16:36:59.545Z,9.10
2019-04-23T16:39:54.394Z,8.47
2019-04-23T16:47:10.817Z,10.07
2019-04-23T16:49:42.139Z,9.40
2019-04-23T16:54:53.562Z,9.60
2019-04-23T16:57:33.596Z,9.95
2019-04-23T17:00:06.695Z,9.30
2019-04-23T17:02:19.301Z,9.73
2019-04-23T17:04:55.007Z,10.23
2019-04-23T17:07:22.241Z,11.10
2019-04-23T17:12:47.405Z,9.47
2019-04-23T17:15:05.518Z,9.27
2019-04-23T17:17:24.727Z,10.57
2019-04-23T17:20:08.862Z,9.33
2019-04-23T17:22:31.384Z,9.70
2019-04-23T17:25:15.632Z,10.53
2019-04-23T17:27:37.404Z,11.40
2019-04-23T17:30:17.428Z,9.97
2019-04-23T17:33:11.700Z,9.93
2019-04-23T17:35:46.204Z,9.73
2019-04-23T17:38:21.180Z,9.07
2019-04-23T17:40:59.869Z,10.10
2019-04-23T17:43:26.368Z,9.63
2019-04-23T17:45:56.623Z,9.90
2019-04-23T17:48:43.868Z,10.55
2019-04-23T17:51:11.589Z,10.67
2019-04-23T17:53:40.030Z,10.00
2019-04-23T17:58:58.635Z,11.00
2019-04-23T18:01:20.155Z,10.10
2019-04-23T18:09:06.096Z,10.30
2019-04-23T18:11:25.005Z,9.83
2019-04-23T18:13:57.125Z,10.47
2019-04-23T18:16:37.881Z,11.33
2019-04-23T18:19:00.851Z,10.83
2019-04-23T18:24:22.707Z,12.10
2019-04-23T18:27:01.303Z,10.40
2019-04-23T18:32:16.344Z,11.60
2019-04-23T18:35:08.780Z,11.37
2019-04-23T18:37:32.900Z,10.90
2019-04-23T18:39:49.865Z,11.83
2019-04-23T18:42:29.589Z,11.50
2019-04-23T18:44:48.609Z,11.67
2019-04-23T18:47:47.323Z,12.43
2019-04-23T18:49:59.849Z,11.70
2019-04-23T18:52:32.823Z,11.80
2019-04-23T18:54:57.345Z,11.20
2019-04-23T18:57:18.279Z,11.60
2019-04-23T19:00:03.317Z,11.73
2019-04-23T19:05:33.228Z,10.90
2019-04-23T19:10:51.858Z,10.90
2019-04-23T19:13:25.328Z,11.07
2019-04-23T19:15:45.836Z,11.00
2019-04-23T19:18:35.588Z,11.30
2019-04-23T19:26:11.438Z,11.10
2019-04-23T19:39:17.605Z,10.70
2019-04-23T19:44:16.568Z,11.30
2019-04-23T19:49:18.540Z,10.10
2019-04-23T19:59:31.726Z,10.20
2019-04-23T20:02:00.444Z,10.97
2019-04-23T20:04:32.239Z,11.83
2019-04-23T20:07:12.260Z,10.60
2019-04-23T20:09:46.145Z,11.30
2019-04-23T20:12:00.735Z,11.53
2019-04-23T20:19:48.151Z,12.10
2019-04-23T20:27:11.845Z,12.23
2019-04-23T20:35:17.901Z,10.82
2019-04-23T20:38:19.040Z,12.43
2019-04-23T20:40:31.119Z,12.00
2019-04-23T20:42:52.623Z,12.53
2019-04-23T20:45:27.359Z,10.10
2019-04-23T20:47:58.090Z,11.50
2019-04-23T20:50:27.722Z,11.53
2019-04-23T20:53:01.412Z,11.67
2019-04-23T20:55:47.529Z,12.00
2019-04-23T20:58:14.168Z,12.37
2019-04-23T21:01:09.552Z,11.23
2019-04-23T21:03:51.564Z,12.30
2019-04-23T21:06:06.912Z,11.90
2019-04-23T21:08:52.362Z,11.60
2019-04-23T21:10:58.405Z,11.87
2019-04-23T21:16:04.987Z,11.10
2019-04-23T21:18:40.946Z,12.13
2019-04-23T21:21:18.186Z,12.73
2019-04-23T21:23:50.318Z,12.83
2019-04-23T21:26:20.094Z,12.43
2019-04-23T21:28:55.263Z,11.37
2019-04-23T21:31:28.483Z,11.93
2019-04-23T21:36:38.805Z,12.43
2019-04-23T21:41:56.515Z,11.37
2019-04-23T21:44:40.794Z,11.33
2019-04-23T21:47:08.894Z,12.20
2019-04-23T21:49:37.368Z,12.30
2019-04-23T21:54:41.249Z,11.40
2019-04-23T21:57:00.528Z,11.95
2019-04-23T21:59:36.860Z,11.43
2019-04-23T22:02:28.773Z,10.23
2019-04-23T22:07:07.120Z,10.13
2019-04-23T22:09:46.344Z,10.37
2019-04-23T22:17:15.127Z,11.13
2019-04-23T22:20:00.631Z,10.80
2019-04-23T22:22:17.008Z,10.00
2019-04-23T22:24:51.592Z,8.83
2019-04-23T22:27:16.723Z,9.40
2019-04-23T22:29:49.133Z,10.47
2019-04-23T22:32:33.617Z,10.63
2019-04-23T22:35:05.846Z,10.13
2019-04-23T22:37:24.193Z,9.90
2019-04-23T22:43:01.344Z,8.90
2019-04-23T22:45:05.608Z,9.67
2019-04-23T22:47:33.573Z,10.03
2019-04-23T22:57:56.195Z,8.20
2019-04-23T23:03:14.771Z,9.80
2019-04-23T23:06:12.412Z,8.10
2019-04-23T23:08:20.484Z,9.27
2019-04-23T23:18:23.710Z,8.70
2019-04-23T23:21:04.309Z,8.23
2019-04-23T23:26:00.738Z,9.07
2019-04-23T23:28:35.260Z,7.87
2019-04-23T23:36:17.970Z,8.13
2019-04-23T23:38:43.566Z,7.53
2019-04-23T23:41:20.408Z,8.70
2019-04-23T23:46:20.799Z,7.60
2019-04-23T23:48:48.237Z,8.50
2019-04-23T23:58:58.860Z,7.80
